Time;durP1;ratioP1;P1;durP2;ratioP2;P2;SDS_P1;SDS_P2;PMS_P1;PMS_P2;Temp;Humidity;BMP_temperature;BMP_pressure;BME280_temperature;BME280_humidity;BME280_pressure;Samples;Min_cycle;Max_cycle;Signal;HPM_P1;HPM_P2
2023/10/09 00:01:27;;;;;;;23.37;3.13;;;16.00;99.90;;;;;;5024954;28;20250;-56
2023/10/09 00:03:55;;;;;;;10.20;3.27;;;15.90;99.90;;;;;;5028922;28;20205;-56
2023/10/09 00:06:31;;;;;;;10.30;2.80;;;15.80;99.90;;;;;;5029144;28;20198;-56
2023/10/09 00:09:11;;;;;;;16.53;3.57;;;15.80;99.90;;;;;;5023966;28;20229;-56
2023/10/09 00:11:41;;;;;;;15.83;4.27;;;15.80;99.90;;;;;;5028760;28;20222;-56
2023/10/09 00:14:09;;;;;;;13.50;2.93;;;15.80;99.90;;;;;;5031597;28;20214;-56
2023/10/09 00:16:40;;;;;;;17.43;3.50;;;15.80;99.90;;;;;;5030572;28;20260;-56
2023/10/09 00:19:17;;;;;;;13.00;3.37;;;15.70;99.90;;;;;;5026595;28;20202;-56
2023/10/09 00:21:45;;;;;;;17.57;3.00;;;15.70;99.90;;;;;;5030286;28;20226;-56
2023/10/09 00:24:23;;;;;;;15.30;3.60;;;15.80;99.90;;;;;;5032237;28;20637;-57
2023/10/09 00:26:51;;;;;;;17.00;3.60;;;15.60;99.90;;;;;;5031292;28;20241;-56
2023/10/09 00:29:22;;;;;;;11.90;3.00;;;15.60;99.90;;;;;;5032363;28;20198;-57
2023/10/09 00:31:54;;;;;;;7.50;3.70;;;15.50;99.90;;;;;;5029566;28;20214;-56
2023/10/09 00:34:22;;;;;;;17.37;4.20;;;15.50;99.90;;;;;;5032151;28;20206;-56
2023/10/09 00:36:53;;;;;;;9.67;3.07;;;15.50;99.90;;;;;;5032257;28;20666;-56
2023/10/09 00:39:43;;;;;;;10.67;3.33;;;15.50;99.90;;;;;;5032215;28;20304;-57
2023/10/09 00:42:14;;;;;;;16.30;3.07;;;15.50;99.90;;;;;;5030268;28;20219;-56
2023/10/09 00:44:41;;;;;;;16.93;4.57;;;15.50;99.90;;;;;;5032101;28;20206;-56
2023/10/09 00:47:23;;;;;;;9.57;3.30;;;15.50;99.90;;;;;;5032010;28;20287;-56
2023/10/09 00:49:58;;;;;;;16.03;3.23;;;15.60;99.90;;;;;;5031754;28;20248;-56
2023/10/09 00:52:36;;;;;;;10.07;3.50;;;15.60;99.90;;;;;;5029155;28;20693;-56
2023/10/09 00:55:13;;;;;;;15.57;3.67;;;15.60;99.90;;;;;;5031911;28;20205;-56
2023/10/09 00:57:47;;;;;;;9.10;2.97;;;15.60;99.90;;;;;;5029341;28;20205;-56
2023/10/09 01:00:32;;;;;;;9.07;2.67;;;15.60;99.90;;;;;;5030344;28;20581;-56
2023/10/09 01:03:18;;;;;;;13.63;3.83;;;15.60;99.90;;;;;;5024353;28;20221;-56
2023/10/09 01:05:57;;;;;;;9.23;3.00;;;15.50;99.90;;;;;;5031763;28;20207;-56
2023/10/09 01:08:30;;;;;;;12.07;3.67;;;15.50;99.90;;;;;;5031551;28;20206;-56
2023/10/09 01:11:08;;;;;;;15.23;5.13;;;15.60;99.90;;;;;;5030116;28;20692;-56
2023/10/09 01:13:52;;;;;;;9.90;2.43;;;15.50;99.90;;;;;;5029322;28;20206;-56
2023/10/09 01:16:22;;;;;;;13.87;3.20;;;15.40;99.90;;;;;;5031485;28;20569;-56
2023/10/09 01:18:51;;;;;;;15.60;4.13;;;15.30;99.90;;;;;;5031337;28;20214;-56
2023/10/09 01:21:21;;;;;;;12.63;2.57;;;15.20;99.90;;;;;;5030337;28;20231;-56
2023/10/09 01:24:03;;;;;;;13.53;5.00;;;15.30;99.90;;;;;;5025998;28;20202;-56
2023/10/09 01:26:34;;;;;;;9.97;3.37;;;15.30;99.90;;;;;;5028456;28;20289;-57
2023/10/09 01:29:01;;;;;;;9.17;3.13;;;15.30;99.90;;;;;;5059759;22;20265;-57
2023/10/09 01:31:37;;;;;;;9.83;2.60;;;15.30;99.90;;;;;;5058109;28;20737;-58
2023/10/09 01:34:09;;;;;;;9.87;3.10;;;15.20;99.90;;;;;;5064862;28;20207;-58
2023/10/09 01:36:39;;;;;;;8.77;3.07;;;15.10;99.90;;;;;;5064571;28;20300;-58
2023/10/09 01:39:21;;;;;;;7.43;2.70;;;15.00;99.90;;;;;;5063169;28;20248;-58
2023/10/09 01:41:49;;;;;;;11.63;2.53;;;15.00;99.90;;;;;;5056374;28;20198;-58
2023/10/09 01:44:16;;;;;;;16.13;3.20;;;15.10;99.90;;;;;;5066441;28;20250;-58
2023/10/09 01:46:45;;;;;;;8.73;2.50;;;15.20;99.90;;;;;;5066087;28;20211;-58
2023/10/09 01:49:21;;;;;;;11.53;3.33;;;15.30;99.90;;;;;;5065671;28;20248;-58
2023/10/09 01:51:50;;;;;;;7.07;2.63;;;15.40;99.90;;;;;;5065835;28;20221;-59
2023/10/09 01:54:33;;;;;;;10.50;2.87;;;15.50;99.90;;;;;;5066252;28;20699;-58
2023/10/09 01:57:05;;;;;;;11.07;2.70;;;15.50;99.90;;;;;;5071179;28;20296;-58
2023/10/09 01:59:33;;;;;;;10.53;1.97;;;15.50;99.90;;;;;;5059727;28;20320;-58
2023/10/09 02:02:06;;;;;;;14.00;3.37;;;15.50;99.90;;;;;;5054292;28;20280;-58
2023/10/09 02:04:34;;;;;;;15.50;2.80;;;15.50;99.90;;;;;;5053479;28;20201;-58
2023/10/09 02:07:06;;;;;;;9.87;2.20;;;15.50;99.90;;;;;;5050939;28;20209;-58
2023/10/09 02:09:44;;;;;;;13.60;3.03;;;15.50;99.90;;;;;;5050855;28;20292;-58
2023/10/09 02:12:12;;;;;;;13.03;2.67;;;15.50;99.90;;;;;;5047990;28;20220;-58
2023/10/09 02:14:41;;;;;;;9.27;3.07;;;15.40;99.90;;;;;;5060791;28;20201;-58
2023/10/09 02:17:17;;;;;;;11.97;3.87;;;15.40;99.90;;;;;;5070985;28;20284;-58
2023/10/09 02:19:48;;;;;;;8.90;2.27;;;15.50;99.90;;;;;;5070785;28;20264;-58
2023/10/09 02:22:15;;;;;;;11.27;2.60;;;15.40;99.90;;;;;;5062337;28;20201;-58
2023/10/09 02:24:57;;;;;;;10.33;2.20;;;15.40;99.90;;;;;;5057158;28;20614;-58
2023/10/09 02:30:15;;;;;;;12.83;2.80;;;15.40;99.90;;;;;;5069377;28;20217;-58
2023/10/09 02:32:43;;;;;;;10.27;4.60;;;15.40;99.90;;;;;;5055501;28;20232;-58
2023/10/09 02:35:20;;;;;;;11.50;2.70;;;15.30;99.90;;;;;;5062235;28;20679;-58
2023/10/09 02:37:47;;;;;;;7.00;2.57;;;15.30;99.90;;;;;;5072465;28;20197;-58
2023/10/09 02:40:29;;;;;;;9.03;4.20;;;15.10;99.90;;;;;;5074253;28;20217;-58
2023/10/09 02:42:57;;;;;;;6.43;2.27;;;14.80;99.90;;;;;;5054340;28;20194;-58
2023/10/09 02:45:29;;;;;;;18.27;3.07;;;14.70;99.90;;;;;;5065815;28;21060;-58
2023/10/09 02:47:56;;;;;;;4.47;2.13;;;14.50;99.90;;;;;;5062169;28;20686;-58
2023/10/09 02:50:28;;;;;;;9.97;2.43;;;14.40;99.90;;;;;;5070031;28;20286;-58
2023/10/09 02:53:00;;;;;;;9.40;3.93;;;14.30;99.90;;;;;;5054056;28;20218;-58
2023/10/09 02:55:29;;;;;;;8.23;2.73;;;14.30;99.90;;;;;;5070484;28;20280;-58
2023/10/09 02:58:07;;;;;;;12.73;3.30;;;14.30;99.90;;;;;;5067423;28;20194;-58
2023/10/09 03:00:36;;;;;;;13.40;3.57;;;14.30;99.90;;;;;;5061025;28;20220;-58
2023/10/09 03:03:07;;;;;;;9.60;2.13;;;14.30;99.90;;;;;;5062026;28;20202;-57
2023/10/09 03:05:34;;;;;;;8.30;2.67;;;14.40;99.90;;;;;;5071331;28;20672;-58
2023/10/09 03:08:02;;;;;;;9.17;3.57;;;14.30;99.90;;;;;;5073893;28;20205;-58
2023/10/09 03:10:33;;;;;;;14.03;3.60;;;14.20;99.90;;;;;;5066998;28;20317;-58
2023/10/09 03:13:03;;;;;;;10.60;2.60;;;14.20;99.90;;;;;;5060393;28;20237;-58
2023/10/09 03:15:34;;;;;;;10.03;2.93;;;14.10;99.90;;;;;;5062101;28;20206;-58
2023/10/09 03:18:03;;;;;;;9.00;3.00;;;14.00;99.90;;;;;;5073829;28;20208;-58
2023/10/09 03:20:31;;;;;;;7.47;3.60;;;14.00;99.90;;;;;;5073730;28;20731;-58
2023/10/09 03:23:01;;;;;;;10.60;3.40;;;14.00;99.90;;;;;;5064016;28;20198;-58
2023/10/09 03:25:28;;;;;;;11.23;3.70;;;14.00;99.90;;;;;;5053987;28;20202;-58
2023/10/09 03:27:58;;;;;;;9.20;3.33;;;13.90;99.90;;;;;;5053769;28;20210;-58
2023/10/09 03:30:25;;;;;;;13.93;3.27;;;13.90;99.90;;;;;;5053321;28;20240;-58
2023/10/09 03:32:53;;;;;;;12.90;3.37;;;13.80;99.90;;;;;;5052843;28;20223;-58
2023/10/09 03:35:25;;;;;;;6.40;3.73;;;13.70;99.90;;;;;;5044632;28;20285;-58
2023/10/09 03:38:02;;;;;;;6.43;2.57;;;13.60;99.90;;;;;;5053456;28;20212;-58
2023/10/09 03:40:31;;;;;;;5.80;3.53;;;13.60;99.90;;;;;;5053287;28;20704;-59
2023/10/09 03:43:01;;;;;;;7.07;2.73;;;13.60;99.90;;;;;;5052985;28;20198;-58
2023/10/09 03:45:31;;;;;;;12.03;2.37;;;13.50;99.90;;;;;;5053615;28;20202;-59
2023/10/09 03:48:02;;;;;;;14.33;2.33;;;13.60;99.90;;;;;;5045096;28;20206;-58
2023/10/09 03:50:35;;;;;;;7.50;3.13;;;13.60;99.90;;;;;;5049623;28;20229;-58
2023/10/09 03:53:07;;;;;;;8.73;2.90;;;13.60;99.90;;;;;;5052873;28;20253;-58
2023/10/09 03:55:35;;;;;;;9.20;2.43;;;13.50;99.90;;;;;;5053136;28;20206;-58
2023/10/09 03:58:04;;;;;;;8.13;2.57;;;13.50;99.90;;;;;;5052331;28;20727;-58
2023/10/09 04:00:40;;;;;;;4.93;3.30;;;13.50;99.90;;;;;;5051178;28;20308;-58
2023/10/09 04:03:11;;;;;;;3.90;1.93;;;13.50;99.90;;;;;;5051693;28;20229;-58
2023/10/09 04:05:40;;;;;;;6.17;2.27;;;13.50;99.90;;;;;;5053181;28;20206;-60
2023/10/09 04:08:13;;;;;;;12.40;3.60;;;13.50;99.90;;;;;;5052907;28;20210;-58
2023/10/09 04:10:50;;;;;;;12.23;2.63;;;13.60;99.90;;;;;;5053030;28;20307;-58
2023/10/09 04:13:22;;;;;;;9.77;3.53;;;13.80;99.90;;;;;;5051272;28;20222;-58
2023/10/09 04:15:52;;;;;;;7.97;2.10;;;13.90;99.90;;;;;;5052564;28;20700;-58
2023/10/09 04:18:20;;;;;;;7.27;3.10;;;14.00;99.90;;;;;;5052883;28;20225;-59
2023/10/09 04:21:15;;;;;;;15.47;3.07;;;14.30;99.90;;;;;;5052573;28;20257;-58
2023/10/09 04:23:59;;;;;;;8.63;1.93;;;14.40;99.90;;;;;;5049036;28;20217;-59
2023/10/09 04:26:25;;;;;;;8.10;1.90;;;14.40;99.90;;;;;;5048510;28;20697;-58
2023/10/09 04:28:53;;;;;;;8.60;2.40;;;14.50;99.90;;;;;;5051409;28;20259;-58
2023/10/09 04:31:27;;;;;;;16.30;2.70;;;14.40;99.90;;;;;;5054275;28;20201;-58
2023/10/09 04:34:21;;;;;;;6.50;2.97;;;14.40;99.90;;;;;;5051595;28;20210;-57
2023/10/09 04:36:51;;;;;;;11.83;2.70;;;14.30;99.90;;;;;;5050867;28;20241;-58
2023/10/09 04:44:59;;;;;;;8.23;2.60;;;13.90;99.90;;;;;;5052870;28;20579;-58
2023/10/09 04:47:35;;;;;;;10.20;2.50;;;13.70;99.90;;;;;;5051726;28;20208;-58
2023/10/09 04:50:11;;;;;;;7.37;2.37;;;13.60;99.90;;;;;;5049738;28;20217;-58
2023/10/09 04:52:53;;;;;;;11.80;2.93;;;13.50;99.90;;;;;;5048808;28;20315;-58
2023/10/09 04:55:24;;;;;;;10.43;2.63;;;13.40;99.90;;;;;;5051897;28;20220;-58
2023/10/09 04:58:09;;;;;;;7.37;2.30;;;13.40;99.90;;;;;;5051620;28;20316;-59
2023/10/09 05:01:03;;;;;;;10.27;1.93;;;13.30;99.90;;;;;;5051582;28;20226;-59
2023/10/09 05:03:42;;;;;;;17.40;5.67;;;13.30;99.90;;;;;;5050882;28;20201;-58
2023/10/09 05:06:21;;;;;;;11.50;2.90;;;13.30;99.90;;;;;;5051227;28;20206;-58
2023/10/09 05:08:48;;;;;;;14.37;4.20;;;13.20;99.90;;;;;;5049775;28;20213;-58
2023/10/09 05:11:34;;;;;;;7.40;2.83;;;13.20;99.90;;;;;;5049352;28;20225;-58
2023/10/09 05:14:11;;;;;;;6.87;3.43;;;13.20;99.90;;;;;;5051448;28;20716;-59
2023/10/09 05:16:53;;;;;;;11.10;3.13;;;13.10;99.90;;;;;;5051756;28;20285;-58
2023/10/09 05:19:30;;;;;;;8.03;2.43;;;13.10;99.90;;;;;;5051185;28;20275;-58
2023/10/09 05:22:04;;;;;;;13.43;3.87;;;13.10;99.90;;;;;;5048441;28;20212;-58
2023/10/09 05:24:43;;;;;;;8.07;2.87;;;13.10;99.90;;;;;;5051846;28;20587;-58
2023/10/09 05:27:45;;;;;;;8.63;2.90;;;13.00;99.90;;;;;;5048839;28;20680;-58
2023/10/09 05:30:24;;;;;;;7.60;2.97;;;13.00;99.90;;;;;;5049955;28;20338;-58
2023/10/09 05:32:55;;;;;;;14.37;2.87;;;13.10;99.90;;;;;;5049906;28;20229;-58
2023/10/09 05:35:38;;;;;;;8.27;2.63;;;13.10;99.90;;;;;;5051533;28;20224;-58
2023/10/09 05:38:23;;;;;;;16.27;2.93;;;13.20;99.90;;;;;;5051193;28;20704;-59
2023/10/09 05:40:53;;;;;;;6.63;3.60;;;13.30;99.90;;;;;;5051158;28;20681;-58
2023/10/09 05:46:09;;;;;;;9.93;3.90;;;13.50;99.90;;;;;;5051063;28;20202;-58
2023/10/09 05:48:54;;;;;;;11.77;4.87;;;13.50;99.90;;;;;;5049536;28;20215;-59
2023/10/09 05:58:25;;;;;;;11.53;4.20;;;13.40;99.90;;;;;;5039618;28;20201;-60
2023/10/09 06:06:01;;;;;;;18.00;5.07;;;13.30;99.90;;;;;;5051116;28;20202;-68
2023/10/09 06:09:09;;;;;;;14.23;6.53;;;13.20;99.90;;;;;;5052102;28;20614;-68
2023/10/09 06:11:41;;;;;;;9.90;5.67;;;13.20;99.90;;;;;;5054835;28;20208;-68
2023/10/09 06:14:13;;;;;;;7.97;4.07;;;13.30;99.90;;;;;;5054851;28;20228;-60
2023/10/09 06:16:59;;;;;;;18.33;5.97;;;13.40;99.90;;;;;;5054869;28;20202;-62
2023/10/09 06:19:28;;;;;;;10.83;3.40;;;13.60;99.90;;;;;;5058471;28;20291;-68
2023/10/09 06:24:54;;;;;;;11.83;5.07;;;13.80;99.90;;;;;;5050427;28;20291;-67
2023/10/09 06:27:53;;;;;;;14.80;5.20;;;13.90;99.90;;;;;;5051720;28;20202;-70
2023/10/09 06:30:24;;;;;;;9.07;5.10;;;14.00;99.90;;;;;;5054254;28;20241;-68
2023/10/09 06:32:57;;;;;;;13.20;3.93;;;14.20;99.90;;;;;;5051662;28;20229;-65
2023/10/09 06:35:30;;;;;;;10.40;3.57;;;14.30;99.90;;;;;;5054335;28;20281;-68
2023/10/09 06:38:21;;;;;;;10.07;4.27;;;14.50;99.90;;;;;;5050298;28;20673;-68
2023/10/09 06:43:42;;;;;;;7.23;2.80;;;14.90;99.90;;;;;;5050994;28;20415;-69
2023/10/09 06:49:19;;;;;;;17.43;4.87;;;15.20;99.90;;;;;;5046383;28;20237;-58
2023/10/09 06:51:47;;;;;;;11.00;4.43;;;15.30;99.90;;;;;;5054157;28;20260;-58
2023/10/09 06:54:16;;;;;;;16.87;4.13;;;15.50;99.90;;;;;;5053975;28;20675;-58
2023/10/09 06:59:41;;;;;;;13.30;2.73;;;15.80;99.90;;;;;;5053169;28;20390;-59
2023/10/09 07:02:25;;;;;;;11.20;4.80;;;16.00;99.90;;;;;;5046500;28;20237;-58
2023/10/09 07:04:55;;;;;;;15.40;3.20;;;16.20;99.90;;;;;;5053810;28;20224;-58
2023/10/09 07:07:24;;;;;;;12.50;3.37;;;16.40;99.90;;;;;;5053663;28;20591;-59
2023/10/09 07:12:43;;;;;;;10.33;3.27;;;16.70;99.90;;;;;;5052193;28;20213;-59
2023/10/09 07:18:18;;;;;;;10.07;4.07;;;17.10;99.90;;;;;;5043936;28;20379;-59
2023/10/09 07:20:58;;;;;;;10.03;4.17;;;17.50;99.90;;;;;;5050651;28;20302;-59
2023/10/09 07:23:28;;;;;;;12.57;3.30;;;17.80;99.90;;;;;;5052133;28;20638;-59
2023/10/09 07:26:18;;;;;;;7.43;2.80;;;18.10;99.90;;;;;;5052841;28;20201;-59
2023/10/09 07:28:48;;;;;;;8.60;2.63;;;18.40;99.90;;;;;;5052847;28;20229;-59
2023/10/09 07:31:26;;;;;;;8.57;2.63;;;18.70;99.90;;;;;;5052920;28;20209;-59
2023/10/09 07:34:07;;;;;;;11.13;2.33;;;19.00;99.90;;;;;;5052732;28;20225;-59
2023/10/09 07:36:38;;;;;;;15.23;2.50;;;19.20;99.90;;;;;;5052414;28;20284;-58
2023/10/09 07:39:16;;;;;;;10.90;2.77;;;19.40;99.90;;;;;;5053112;28;20221;-59
2023/10/09 07:42:01;;;;;;;6.13;2.27;;;19.60;99.90;;;;;;5052693;28;20201;-59
2023/10/09 07:44:37;;;;;;;13.97;3.53;;;19.70;99.90;;;;;;5052986;28;20202;-59
2023/10/09 07:47:17;;;;;;;9.50;1.93;;;19.80;99.90;;;;;;5053869;28;20197;-60
2023/10/09 07:49:48;;;;;;;11.07;2.67;;;20.00;99.90;;;;;;5052554;28;20676;-59
2023/10/09 07:52:16;;;;;;;10.37;2.40;;;20.20;99.90;;;;;;5051480;28;20239;-59
2023/10/09 07:54:49;;;;;;;4.73;2.80;;;20.50;99.90;;;;;;5061082;28;20308;-59
2023/10/09 07:57:25;;;;;;;12.93;5.73;;;20.70;99.90;;;;;;5050946;28;20202;-59
2023/10/09 08:00:00;;;;;;;13.47;5.67;;;20.70;99.90;;;;;;5052116;28;20252;-59
2023/10/09 08:02:32;;;;;;;9.93;4.83;;;20.70;99.90;;;;;;5052076;28;20581;-59
2023/10/09 08:05:06;;;;;;;10.27;4.47;;;20.60;99.90;;;;;;5043904;28;20233;-59
2023/10/09 08:07:36;;;;;;;16.13;6.57;;;20.70;99.90;;;;;;5052404;28;20327;-59
2023/10/09 08:13:05;;;;;;;18.10;6.97;;;20.30;99.90;;;;;;5064051;28;20208;-57
2023/10/09 08:15:51;;;;;;;14.23;5.93;;;20.10;99.90;;;;;;5063585;28;20209;-57
2023/10/09 08:18:27;;;;;;;23.20;7.67;;;20.20;99.90;;;;;;5053807;28;20220;-57
2023/10/09 08:23:49;;;;;;;16.73;6.80;;;20.30;99.90;;;;;;5060400;28;20185;-57
2023/10/09 08:26:28;;;;;;;17.73;6.50;;;20.50;99.90;;;;;;5072294;28;20209;-57
2023/10/09 08:31:46;;;;;;;15.70;6.40;;;20.40;99.90;;;;;;5068507;28;20236;-57
2023/10/09 08:34:24;;;;;;;14.90;6.23;;;20.40;99.90;;;;;;5062444;28;20308;-57
2023/10/09 08:36:53;;;;;;;13.60;6.93;;;20.50;99.90;;;;;;5054041;28;20194;-57
2023/10/09 08:39:26;;;;;;;13.57;6.10;;;20.50;99.90;;;;;;5071986;28;20801;-57
2023/10/09 08:41:57;;;;;;;14.13;6.60;;;20.60;99.90;;;;;;5071516;28;20668;-57
2023/10/09 08:44:29;;;;;;;10.73;5.30;;;20.80;99.90;;;;;;5063179;28;20221;-57
2023/10/09 08:46:57;;;;;;;19.73;7.33;;;21.20;99.90;;;;;;5061416;28;20660;-57
2023/10/09 08:49:24;;;;;;;13.17;6.03;;;21.50;99.90;;;;;;5055815;28;20226;-57
2023/10/09 08:51:53;;;;;;;16.57;5.87;;;22.00;99.90;;;;;;5058474;28;20202;-57
2023/10/09 08:54:20;;;;;;;17.50;5.43;;;22.50;99.90;;;;;;5055848;28;20305;-58
2023/10/09 08:56:50;;;;;;;14.80;6.30;;;23.10;99.90;;;;;;5063385;28;20246;-58
2023/10/09 08:59:19;;;;;;;14.87;5.00;;;24.00;99.90;;;;;;5057873;28;20816;-58
2023/10/09 09:01:51;;;;;;;10.43;5.43;;;24.70;99.90;;;;;;5051074;28;20289;-57
2023/10/09 09:04:39;;;;;;;15.17;4.73;;;24.70;99.90;;;;;;5051940;28;20688;-58
2023/10/09 09:07:06;;;;;;;12.43;5.43;;;25.20;99.90;;;;;;5046903;28;20233;-58
2023/10/09 09:09:35;;;;;;;11.03;5.30;;;26.00;99.90;;;;;;5058266;28;20577;-57
2023/10/09 09:12:02;;;;;;;10.53;4.40;;;26.20;99.90;;;;;;5048942;28;20210;-58
2023/10/09 09:14:39;;;;;;;15.77;4.43;;;26.50;99.90;;;;;;5051195;28;20300;-58
2023/10/09 09:17:10;;;;;;;9.97;3.60;;;26.20;99.90;;;;;;5050491;28;20688;-57
2023/10/09 09:19:38;;;;;;;13.63;4.40;;;26.20;99.90;;;;;;5051352;28;20248;-58
2023/10/09 09:22:15;;;;;;;14.13;4.50;;;26.00;99.90;;;;;;5050837;28;20267;-58
2023/10/09 09:25:00;;;;;;;13.57;4.27;;;26.00;99.90;;;;;;5050920;28;20205;-58
2023/10/09 09:27:49;;;;;;;16.63;5.47;;;26.50;99.90;;;;;;5046634;28;20301;-58
2023/10/09 09:30:25;;;;;;;11.90;3.27;;;26.90;99.90;;;;;;5051411;28;20234;-59
2023/10/09 09:35:34;;;;;;;13.30;3.75;;;27.30;99.90;;;;;;5050537;28;20644;-60
2023/10/09 09:38:04;;;;;;;13.50;4.38;;;26.90;99.90;;;;;;5042702;28;20320;-58
2023/10/09 09:40:41;;;;;;;12.25;3.22;;;26.70;99.90;;;;;;5050717;28;20237;-58
2023/10/09 09:43:21;;;;;;;10.60;2.55;;;26.50;99.90;;;;;;5049114;28;20267;-59
2023/10/09 09:45:56;;;;;;;14.73;3.05;;;26.00;99.90;;;;;;5049835;28;20197;-58
2023/10/09 09:48:25;;;;;;;17.38;5.28;;;26.00;99.90;;;;;;5050289;28;20236;-58
2023/10/09 09:50:54;;;;;;;8.43;3.57;;;25.60;99.90;;;;;;5050485;28;20263;-59
2023/10/09 09:53:23;;;;;;;12.73;3.50;;;25.50;99.90;;;;;;5050233;28;20691;-58
2023/10/09 09:55:57;;;;;;;14.80;3.33;;;25.40;99.90;;;;;;5050623;28;20222;-59
2023/10/09 09:58:27;;;;;;;16.60;6.00;;;25.20;99.90;;;;;;5050798;28;20208;-59
2023/10/09 10:01:00;;;;;;;15.47;4.00;;;24.80;99.90;;;;;;5048143;28;20234;-59
2023/10/09 10:03:35;;;;;;;6.27;2.50;;;25.10;99.90;;;;;;5048080;28;20608;-59
2023/10/09 10:06:09;;;;;;;13.80;4.07;;;24.80;99.90;;;;;;5042621;28;20201;-58
2023/10/09 10:08:39;;;;;;;17.43;3.90;;;24.90;99.90;;;;;;5050401;28;20822;-58
2023/10/09 10:11:13;;;;;;;13.17;4.07;;;24.90;99.90;;;;;;5050599;28;20236;-58
2023/10/09 10:13:59;;;;;;;15.23;3.67;;;25.00;99.90;;;;;;5049779;28;20729;-59
2023/10/09 10:16:34;;;;;;;13.73;3.03;;;25.10;99.90;;;;;;5050543;28;20213;-59
2023/10/09 10:21:52;;;;;;;12.37;3.50;;;24.70;99.90;;;;;;5045992;28;20326;-59
2023/10/09 10:24:51;;;;;;;12.20;3.33;;;24.40;99.90;;;;;;5050472;28;20198;-58
2023/10/09 10:27:24;;;;;;;14.20;3.70;;;24.30;99.90;;;;;;5050350;28;20688;-59
2023/10/09 10:30:36;;;;;;;13.23;3.50;;;24.30;99.90;;;;;;5050283;28;20229;-58
2023/10/09 10:33:13;;;;;;;14.47;3.70;;;24.20;99.90;;;;;;5048133;28;20214;-59
2023/10/09 10:35:52;;;;;;;10.40;3.23;;;24.20;99.90;;;;;;5043630;28;20280;-58
2023/10/09 10:38:39;;;;;;;23.67;5.33;;;24.10;99.90;;;;;;5050207;28;20288;-59
2023/10/09 10:41:12;;;;;;;13.83;3.03;;;24.20;99.90;;;;;;5048358;28;20686;-58
2023/10/09 10:43:59;;;;;;;12.73;3.60;;;24.40;99.90;;;;;;5049854;28;20193;-58
2023/10/09 10:46:34;;;;;;;15.83;2.87;;;24.60;99.90;;;;;;5050375;28;20232;-58
2023/10/09 10:49:14;;;;;;;12.73;3.63;;;24.80;99.90;;;;;;5049055;28;20229;-59
2023/10/09 10:51:48;;;;;;;9.63;2.73;;;24.90;99.90;;;;;;5048513;28;20289;-59
2023/10/09 10:57:28;;;;;;;9.50;3.10;;;25.20;99.90;;;;;;5052956;28;20328;-59
2023/10/09 11:00:12;;;;;;;8.57;2.63;;;25.20;99.90;;;;;;5052441;28;20222;-58
2023/10/09 11:02:40;;;;;;;11.13;3.00;;;25.20;99.90;;;;;;5050193;28;20193;-58
2023/10/09 11:05:24;;;;;;;19.93;4.30;;;25.30;99.90;;;;;;5053663;28;20251;-58
2023/10/09 11:08:00;;;;;;;10.50;2.60;;;25.20;99.90;;;;;;5053280;28;20525;-58
2023/10/09 11:10:31;;;;;;;21.63;5.40;;;25.20;99.90;;;;;;5053319;28;20748;-58
2023/10/09 11:13:30;;;;;;;13.90;4.33;;;25.10;99.90;;;;;;5053113;28;20209;-58
2023/10/09 11:16:14;;;;;;;10.03;3.00;;;25.00;99.90;;;;;;5053192;28;20312;-58
2023/10/09 11:18:46;;;;;;;9.90;3.00;;;24.90;99.90;;;;;;5052726;28;20305;-58
2023/10/09 11:21:31;;;;;;;12.37;2.63;;;24.90;99.90;;;;;;5052957;28;20233;-58
2023/10/09 11:24:23;;;;;;;12.90;4.53;;;25.00;99.90;;;;;;5052926;28;20216;-58
2023/10/09 11:26:54;;;;;;;10.07;3.00;;;25.00;99.90;;;;;;5053131;28;20746;-59
2023/10/09 11:29:29;;;;;;;17.40;3.60;;;25.10;99.90;;;;;;5052690;28;20782;-58
2023/10/09 11:31:59;;;;;;;7.57;2.67;;;25.10;99.90;;;;;;5052294;28;20285;-58
2023/10/09 11:34:32;;;;;;;14.67;2.60;;;25.00;99.90;;;;;;5052924;28;20222;-58
2023/10/09 11:37:00;;;;;;;15.73;2.93;;;25.00;99.90;;;;;;5052893;28;20288;-58
2023/10/09 11:39:34;;;;;;;19.83;3.27;;;25.00;99.90;;;;;;5052696;28;20263;-61
2023/10/09 11:42:08;;;;;;;13.20;3.83;;;25.00;99.90;;;;;;5052319;28;20235;-58
2023/10/09 11:44:44;;;;;;;15.70;4.80;;;24.80;99.90;;;;;;5051034;28;20427;-58
2023/10/09 11:47:24;;;;;;;13.67;3.70;;;24.60;99.90;;;;;;5054165;28;20202;-59
2023/10/09 11:50:11;;;;;;;17.57;4.03;;;24.50;99.90;;;;;;5056728;28;20221;-58
2023/10/09 11:53:08;;;;;;;12.73;3.10;;;24.40;99.90;;;;;;5054393;28;20197;-59
2023/10/09 11:55:37;;;;;;;6.80;3.53;;;24.40;99.90;;;;;;5052332;28;20221;-58
2023/10/09 11:58:06;;;;;;;10.13;3.93;;;24.40;99.90;;;;;;5044431;28;20202;-59
2023/10/09 12:00:44;;;;;;;11.10;3.77;;;24.40;99.90;;;;;;5052220;28;20226;-58
2023/10/09 12:03:13;;;;;;;12.57;4.33;;;24.30;99.90;;;;;;5048390;28;20197;-58
2023/10/09 12:05:45;;;;;;;19.20;4.17;;;24.30;99.90;;;;;;5050688;28;20577;-58
2023/10/09 12:08:15;;;;;;;9.87;4.13;;;24.40;99.90;;;;;;5052108;28;20202;-59
2023/10/09 12:10:48;;;;;;;14.03;4.00;;;24.60;99.90;;;;;;5051921;28;20229;-59
2023/10/09 12:13:15;;;;;;;9.53;3.23;;;24.70;99.90;;;;;;5051941;28;20202;-58
2023/10/09 12:15:46;;;;;;;12.67;4.70;;;24.70;99.90;;;;;;5059996;28;20780;-58
2023/10/09 12:18:15;;;;;;;12.13;3.37;;;24.70;99.90;;;;;;5053110;28;20202;-58
2023/10/09 12:20:49;;;;;;;13.53;4.03;;;24.50;99.90;;;;;;5050545;28;20256;-58
2023/10/09 12:23:17;;;;;;;14.00;3.23;;;24.50;99.90;;;;;;5051336;28;20201;-58
2023/10/09 12:25:45;;;;;;;16.97;4.07;;;24.50;99.90;;;;;;5051790;28;20202;-58
2023/10/09 12:28:13;;;;;;;7.03;3.93;;;24.40;99.90;;;;;;5051787;28;20288;-59
2023/10/09 12:30:47;;;;;;;12.10;3.67;;;24.40;99.90;;;;;;5051481;28;20241;-58
2023/10/09 12:33:15;;;;;;;15.80;3.60;;;24.40;99.90;;;;;;5051077;28;20205;-58
2023/10/09 12:35:45;;;;;;;12.93;3.47;;;24.40;99.90;;;;;;5050895;28;20222;-59
2023/10/09 12:38:13;;;;;;;21.70;3.93;;;24.40;99.90;;;;;;5051256;28;20283;-58
2023/10/09 12:40:50;;;;;;;15.93;4.50;;;24.30;99.90;;;;;;5051559;28;20623;-59
2023/10/09 12:43:19;;;;;;;10.93;3.93;;;24.30;99.90;;;;;;5051273;28;20240;-58
2023/10/09 12:45:48;;;;;;;16.07;4.60;;;24.20;99.90;;;;;;5051449;28;20747;-65
2023/10/09 12:48:15;;;;;;;7.07;2.97;;;24.20;99.90;;;;;;5050108;28;20712;-70
2023/10/09 12:50:44;;;;;;;9.80;4.63;;;24.30;99.90;;;;;;5051091;28;20257;-67
2023/10/09 12:53:17;;;;;;;12.70;3.27;;;24.30;99.90;;;;;;5049127;28;20213;-69
2023/10/09 12:55:44;;;;;;;10.57;2.80;;;24.30;99.90;;;;;;5051001;28;20304;-69
2023/10/09 12:58:14;;;;;;;12.87;3.77;;;24.30;99.90;;;;;;5050194;28;20622;-61
2023/10/09 13:00:48;;;;;;;14.03;3.67;;;24.20;99.90;;;;;;5050171;28;20222;-59
2023/10/09 13:03:21;;;;;;;22.57;4.10;;;24.20;99.90;;;;;;5046696;28;20212;-59
2023/10/09 13:05:59;;;;;;;10.90;3.97;;;24.10;99.90;;;;;;5050104;28;20201;-59
2023/10/09 13:08:31;;;;;;;22.00;5.33;;;23.90;99.90;;;;;;5045151;28;20205;-59
2023/10/09 13:11:10;;;;;;;10.17;4.30;;;23.90;99.90;;;;;;5049643;28;20222;-59
2023/10/09 13:13:41;;;;;;;13.73;4.17;;;23.70;99.90;;;;;;5050740;28;20205;-59
2023/10/09 13:16:13;;;;;;;14.03;4.53;;;23.70;99.90;;;;;;5051070;28;20712;-59
2023/10/09 13:18:41;;;;;;;14.93;4.43;;;23.60;99.90;;;;;;5050966;28;20268;-60
2023/10/09 13:21:08;;;;;;;12.10;3.80;;;23.60;99.90;;;;;;5050952;28;20216;-59
2023/10/09 13:23:39;;;;;;;13.83;3.47;;;23.60;99.90;;;;;;5050510;28;20209;-59
2023/10/09 13:26:18;;;;;;;10.97;3.97;;;23.50;99.90;;;;;;5051127;28;20248;-59
2023/10/09 13:28:50;;;;;;;15.70;3.50;;;23.40;99.90;;;;;;5045999;28;20194;-59
2023/10/09 13:31:20;;;;;;;11.57;4.47;;;23.40;99.90;;;;;;5050962;28;20201;-59
2023/10/09 13:33:48;;;;;;;10.57;4.93;;;23.40;99.90;;;;;;5050909;28;20212;-58
2023/10/09 13:36:26;;;;;;;18.20;3.90;;;23.30;99.90;;;;;;5051005;28;20308;-59
2023/10/09 13:38:54;;;;;;;15.47;3.10;;;23.20;99.90;;;;;;5050694;28;20294;-59
2023/10/09 13:41:22;;;;;;;7.40;3.57;;;23.00;99.90;;;;;;5050658;28;20300;-58
2023/10/09 13:43:51;;;;;;;11.47;4.33;;;23.00;99.90;;;;;;5048174;28;20206;-58
2023/10/09 13:46:19;;;;;;;11.03;4.23;;;23.00;99.90;;;;;;5050675;28;20311;-59
2023/10/09 13:48:49;;;;;;;16.67;3.77;;;22.90;99.90;;;;;;5050870;28;20716;-59
2023/10/09 13:51:17;;;;;;;17.47;5.43;;;22.80;99.90;;;;;;5050911;28;20285;-59
2023/10/09 13:53:47;;;;;;;12.97;3.53;;;22.90;99.90;;;;;;5049631;28;20209;-59
2023/10/09 13:56:18;;;;;;;6.00;3.27;;;22.90;99.90;;;;;;5055285;28;20217;-59
2023/10/09 13:58:49;;;;;;;24.90;4.60;;;22.80;99.90;;;;;;5051728;28;20201;-59
2023/10/09 14:01:26;;;;;;;10.27;3.53;;;22.80;99.90;;;;;;5050829;28;20212;-59
2023/10/09 14:04:00;;;;;;;10.63;4.03;;;22.80;99.90;;;;;;5045461;28;20209;-59
2023/10/09 14:06:34;;;;;;;7.57;3.50;;;22.50;99.90;;;;;;5044668;28;20194;-59
2023/10/09 14:09:05;;;;;;;16.17;3.87;;;22.40;99.90;;;;;;5050263;28;20704;-59
2023/10/09 14:11:32;;;;;;;12.90;4.53;;;22.40;99.90;;;;;;5050224;28;20376;-59
2023/10/09 14:14:00;;;;;;;12.43;3.77;;;22.30;99.90;;;;;;5050285;28;20747;-59